Terminal Aerodrome Forecast
Issued by NWS

Home | Current Version | Previous Version | Graphics & Text | Print | Product List | Glossary On
Versions: 1 2 3 4 5 6 7 8 9 10 11 12 13 14 15 16 17 18 19 20 21 22 23 24
000
FTUS43 KOAX 151705 AAB
TAFCDR
TAF AMD
KCDR 151705Z 1517/1612 01020G33KT 1SM -SN OVC014
      TEMPO 1517/1518 1/2SM SN FZFG OVC009
     FM151800 33015G25KT 2SM -SN SCT009 OVC015
     FM152300 32008KT P6SM SCT025 BKN040=

USA.gov is the U.S. government's official web portal to all federal, state and local government web resources and services.